Time;durP1;ratioP1;P1;durP2;ratioP2;P2;SDS_P1;SDS_P2;PMS_P1;PMS_P2;Temp;Humidity;BMP_temperature;BMP_pressure;BME280_temperature;BME280_humidity;BME280_pressure;Samples;Min_cycle;Max_cycle;Signal;HPM_P1;HPM_P2
2021/08/12 00:01:38;;;;;;;12.25;8.50;;;;;;;18.40;67.77;101875.41;5033084;28;20068;-58
2021/08/12 00:04:05;;;;;;;13.82;8.98;;;;;;;18.32;68.25;101871.38;5033171;28;20458;-58
2021/08/12 00:06:33;;;;;;;13.65;8.60;;;;;;;18.26;68.31;101865.13;5033172;28;20037;-58
2021/08/12 00:09:01;;;;;;;13.18;8.88;;;;;;;18.24;68.86;101867.34;5032229;28;20045;-56
2021/08/12 00:11:29;;;;;;;13.73;8.55;;;;;;;18.31;68.63;101859.53;5047046;28;20041;-58
2021/08/12 00:13:56;;;;;;;15.50;10.18;;;;;;;18.39;68.13;101862.75;5046856;28;20377;-58
2021/08/12 00:16:24;;;;;;;14.88;10.10;;;;;;;18.33;68.05;101863.91;5032937;28;20045;-58
2021/08/12 00:18:55;;;;;;;12.52;9.40;;;;;;;18.28;68.44;101870.34;5032702;28;20033;-58
2021/08/12 00:21:23;;;;;;;15.07;9.35;;;;;;;18.26;68.51;101864.31;5032848;28;20044;-56
2021/08/12 00:23:56;;;;;;;14.88;9.55;;;;;;;18.26;68.43;101867.88;5032571;28;20045;-58
2021/08/12 00:26:23;;;;;;;15.02;9.27;;;;;;;18.25;68.37;101863.47;5032631;28;20045;-58
2021/08/12 00:28:51;;;;;;;12.57;9.27;;;;;;;18.28;68.49;101857.38;5031404;28;20103;-55
2021/08/12 00:31:19;;;;;;;14.95;9.23;;;;;;;18.30;68.20;101866.19;5032577;28;20100;-55
2021/08/12 00:33:46;;;;;;;13.30;8.60;;;;;;;18.27;68.40;101864.00;5032272;28;20041;-54
2021/08/12 00:36:15;;;;;;;12.45;8.75;;;;;;;18.26;68.38;101869.81;5031273;28;20124;-58
2021/08/12 00:38:43;;;;;;;13.07;8.75;;;;;;;18.28;68.28;101862.06;5032284;28;20108;-54
2021/08/12 00:41:12;;;;;;;12.02;8.35;;;;;;;18.25;68.28;101860.69;5031037;28;20068;-54
2021/08/12 00:43:40;;;;;;;15.48;9.80;;;;;;;18.25;68.32;101865.41;5031216;28;20515;-57
2021/08/12 00:46:08;;;;;;;14.05;10.05;;;;;;;18.22;68.28;101868.75;5031359;28;20037;-55
2021/08/12 00:48:37;;;;;;;19.33;9.95;;;;;;;18.21;68.47;101859.66;5031251;28;20041;-54
2021/08/12 00:51:06;;;;;;;15.85;9.40;;;;;;;18.21;68.32;101848.63;5030872;28;20041;-57
2021/08/12 00:53:34;;;;;;;12.68;8.77;;;;;;;18.20;68.43;101859.94;5030809;28;20073;-53
2021/08/12 00:56:03;;;;;;;14.98;10.02;;;;;;;18.16;68.30;101854.22;5034647;28;20052;-56
2021/08/12 00:58:34;;;;;;;16.92;10.27;;;;;;;18.14;68.58;101858.38;5052437;28;20156;-56
2021/08/12 01:01:01;;;;;;;13.32;9.45;;;;;;;18.14;68.50;101858.38;5050681;28;20045;-57
2021/08/12 01:03:32;;;;;;;13.63;9.43;;;;;;;18.14;68.45;101859.19;5050984;28;20049;-57
2021/08/12 01:06:00;;;;;;;13.65;8.88;;;;;;;18.15;68.33;101858.06;5049985;28;20446;-57
2021/08/12 01:08:40;;;;;;;16.27;9.63;;;;;;;18.16;68.25;101862.50;5030602;28;20048;-58
2021/08/12 01:11:56;;;;;;;13.48;9.05;;;;;;;18.16;68.38;101865.25;5030733;28;20057;-59
2021/08/12 01:14:49;;;;;;;12.30;8.88;;;;;;;18.14;68.06;101870.22;5028692;28;20090;-55
2021/08/12 01:17:24;;;;;;;11.35;7.75;;;;;;;18.12;68.36;101869.69;5031192;28;20034;-58
2021/08/12 01:20:13;;;;;;;12.27;7.70;;;;;;;18.12;68.47;101877.97;5014443;28;20121;-57
2021/08/12 01:22:47;;;;;;;13.10;9.27;;;;;;;18.12;68.41;101875.22;5045301;28;20056;-53
2021/08/12 01:25:34;;;;;;;12.68;8.25;;;;;;;18.15;68.38;101885.66;5035325;28;20053;-58
2021/08/12 01:28:11;;;;;;;12.85;9.15;;;;;;;18.16;68.38;101879.03;5024485;28;20401;-58
2021/08/12 01:31:10;;;;;;;12.80;8.13;;;;;;;18.16;68.34;101869.91;5038339;28;20052;-57
2021/08/12 01:34:06;;;;;;;13.57;8.98;;;;;;;18.18;68.33;101873.22;5054831;28;20562;-56
2021/08/12 01:36:40;;;;;;;13.70;8.50;;;;;;;18.12;68.40;101874.41;5039126;28;20136;-59
2021/08/12 01:39:11;;;;;;;15.35;10.05;;;;;;;18.02;69.11;101880.84;5034797;28;20099;-59
2021/08/12 01:41:40;;;;;;;13.45;9.68;;;;;;;17.99;69.43;101881.41;5031027;28;20048;-59
2021/08/12 01:44:08;;;;;;;15.27;8.95;;;;;;;18.00;69.34;101872.84;5034376;28;20049;-58
2021/08/12 01:46:37;;;;;;;19.55;10.18;;;;;;;18.04;68.72;101864.84;5029611;28;20049;-58
2021/08/12 01:49:07;;;;;;;15.18;10.07;;;;;;;17.97;69.09;101867.13;5034567;28;20046;-59
2021/08/12 01:51:36;;;;;;;14.18;9.88;;;;;;;17.90;69.55;101869.41;5034413;28;20132;-59
2021/08/12 01:54:05;;;;;;;13.63;9.82;;;;;;;17.85;69.32;101860.06;5040652;28;20029;-59
2021/08/12 01:56:37;;;;;;;13.88;9.75;;;;;;;17.82;69.33;101860.66;5038096;28;20052;-59
2021/08/12 01:59:05;;;;;;;15.63;10.00;;;;;;;17.81;69.67;101859.00;5052054;28;20051;-57
2021/08/12 02:01:33;;;;;;;16.23;10.68;;;;;;;17.79;69.66;101861.19;5035458;28;20392;-60
2021/08/12 02:04:03;;;;;;;11.65;8.20;;;;;;;17.80;69.86;101857.38;5031762;28;20053;-60
2021/08/12 02:06:36;;;;;;;15.20;8.40;;;;;;;17.84;69.69;101857.59;5044185;28;20083;-59
2021/08/12 02:09:04;;;;;;;14.18;8.98;;;;;;;17.87;69.71;101868.88;5020899;28;20395;-60
2021/08/12 02:11:34;;;;;;;14.93;8.52;;;;;;;17.91;69.58;101862.75;5034083;28;20048;-60
2021/08/12 02:14:02;;;;;;;11.70;7.28;;;;;;;17.94;69.55;101868.50;5035207;28;20045;-59
2021/08/12 02:16:30;;;;;;;12.05;8.18;;;;;;;17.97;69.37;101859.66;5034297;28;20103;-57
2021/08/12 02:18:58;;;;;;;12.32;7.88;;;;;;;17.98;69.28;101853.03;5033328;28;20076;-59
2021/08/12 02:21:41;;;;;;;16.35;10.00;;;;;;;17.97;69.21;101845.06;5033938;28;20045;-60
2021/08/12 02:24:37;;;;;;;11.85;7.78;;;;;;;17.93;69.37;101835.72;5031192;28;20045;-56
2021/08/12 02:27:24;;;;;;;13.20;8.57;;;;;;;17.86;69.36;101833.31;5033993;28;20045;-57
2021/08/12 02:29:53;;;;;;;12.02;7.90;;;;;;;17.80;69.77;101824.28;5033529;28;20052;-60
2021/08/12 02:32:26;;;;;;;12.50;7.78;;;;;;;17.78;69.89;101820.16;5025805;28;20054;-59
2021/08/12 02:34:55;;;;;;;15.30;9.77;;;;;;;17.79;69.64;101821.78;5033141;28;20049;-58
2021/08/12 02:37:24;;;;;;;15.10;9.30;;;;;;;17.69;69.67;101817.19;5025132;28;20507;-59
2021/08/12 02:39:52;;;;;;;17.45;9.82;;;;;;;17.58;70.01;101821.16;5037216;28;20036;-60
2021/08/12 02:42:20;;;;;;;16.10;10.05;;;;;;;17.43;70.69;101813.88;5043385;28;20088;-60
2021/08/12 02:44:48;;;;;;;12.85;8.95;;;;;;;17.33;71.28;101820.28;5033399;28;20076;-60
2021/08/12 02:47:16;;;;;;;14.55;8.82;;;;;;;17.31;71.01;101814.25;5021980;28;20041;-60
2021/08/12 02:49:46;;;;;;;16.02;9.68;;;;;;;17.31;71.35;101814.25;5047269;28;20048;-60
2021/08/12 02:52:15;;;;;;;12.93;8.93;;;;;;;17.33;71.36;101816.72;5033565;28;20080;-60
2021/08/12 02:54:47;;;;;;;13.30;8.55;;;;;;;17.37;71.46;101815.84;5027617;28;20045;-60
2021/08/12 02:57:16;;;;;;;17.10;9.80;;;;;;;17.41;71.08;101811.41;5036664;28;20049;-60
2021/08/12 02:59:45;;;;;;;13.55;8.65;;;;;;;17.44;70.72;101810.03;5024059;28;20053;-59
2021/08/12 03:02:14;;;;;;;14.23;9.77;;;;;;;17.43;70.65;101814.69;5032355;28;20053;-59
2021/08/12 03:04:43;;;;;;;12.65;9.50;;;;;;;17.48;70.57;101818.50;5036754;28;20045;-59
2021/08/12 03:07:12;;;;;;;12.68;9.15;;;;;;;17.46;70.51;101813.28;5018178;28;20056;-60
2021/08/12 03:09:41;;;;;;;16.75;10.65;;;;;;;17.42;70.29;101817.75;5024322;28;20052;-59
2021/08/12 03:12:12;;;;;;;16.65;9.85;;;;;;;17.33;70.69;101814.78;5035122;28;20045;-60
2021/08/12 03:14:40;;;;;;;16.45;10.45;;;;;;;17.25;70.99;101829.19;5034197;28;20066;-60
2021/08/12 03:17:11;;;;;;;14.43;10.27;;;;;;;17.20;71.19;101820.97;5028986;28;20041;-60
2021/08/12 03:19:43;;;;;;;15.65;10.13;;;;;;;17.15;71.18;101812.72;5034309;28;20107;-60
2021/08/12 03:22:13;;;;;;;15.32;8.90;;;;;;;17.10;71.37;101816.38;5016745;28;20076;-59
2021/08/12 03:24:43;;;;;;;16.83;10.20;;;;;;;17.07;71.72;101822.44;5034161;28;20198;-59
2021/08/12 03:27:12;;;;;;;15.18;10.15;;;;;;;17.06;71.92;101814.47;5031771;28;20401;-59
2021/08/12 03:29:40;;;;;;;13.40;8.27;;;;;;;17.10;71.86;101819.13;5033941;28;20069;-56
2021/08/12 03:32:10;;;;;;;16.38;10.18;;;;;;;17.13;71.45;101826.00;5031965;28;20453;-60
2021/08/12 03:34:38;;;;;;;13.73;8.82;;;;;;;17.11;71.84;101822.69;5032438;28;20045;-59
2021/08/12 03:37:07;;;;;;;14.88;8.93;;;;;;;17.13;71.46;101826.00;5032531;28;20377;-60
2021/08/12 03:39:36;;;;;;;16.10;9.73;;;;;;;17.14;71.16;101816.59;5032574;28;20041;-60
2021/08/12 03:42:04;;;;;;;15.00;8.80;;;;;;;17.09;71.44;101819.41;5032402;28;20037;-60
2021/08/12 03:44:32;;;;;;;14.95;9.48;;;;;;;17.06;71.71;101814.47;5031445;28;20088;-59
2021/08/12 03:47:06;;;;;;;13.85;9.18;;;;;;;17.00;71.67;101811.78;5033521;28;20045;-57
2021/08/12 03:49:34;;;;;;;13.90;9.18;;;;;;;16.98;71.84;101808.47;5032450;28;20400;-58
2021/08/12 03:52:03;;;;;;;15.25;9.50;;;;;;;16.97;71.90;101812.31;5032277;28;20037;-57
2021/08/12 03:54:35;;;;;;;16.40;8.57;;;;;;;16.94;72.05;101823.09;5032241;28;20049;-60
2021/08/12 03:57:05;;;;;;;14.38;9.88;;;;;;;16.97;72.07;101806.81;5031768;28;20500;-56
2021/08/12 03:59:33;;;;;;;14.32;9.23;;;;;;;16.99;71.80;101815.63;5032121;28;20033;-59
2021/08/12 04:02:01;;;;;;;15.65;10.05;;;;;;;17.01;71.85;101824.41;5045422;28;20041;-58
2021/08/12 04:04:30;;;;;;;15.50;10.13;;;;;;;17.01;71.51;101827.16;5031900;28;20447;-56
2021/08/12 04:06:57;;;;;;;18.08;10.68;;;;;;;17.01;71.43;101827.16;5046012;28;20045;-59
2021/08/12 04:09:25;;;;;;;15.25;10.35;;;;;;;17.01;71.18;101835.44;5033310;28;20061;-59
2021/08/12 04:11:53;;;;;;;18.05;9.95;;;;;;;16.97;71.66;101828.03;5032987;28;20049;-52
2021/08/12 04:14:20;;;;;;;14.10;9.88;;;;;;;16.92;71.75;101837.16;5031727;28;20389;-56
2021/08/12 04:16:49;;;;;;;14.00;9.60;;;;;;;16.91;71.57;101840.16;5033043;28;20065;-59
2021/08/12 04:19:16;;;;;;;15.30;9.43;;;;;;;16.91;71.82;101835.50;5038047;28;20041;-58
2021/08/12 04:21:44;;;;;;;18.73;10.13;;;;;;;16.89;71.50;101829.47;5051926;28;20068;-59
2021/08/12 04:24:13;;;;;;;14.60;8.90;;;;;;;16.89;71.85;101832.22;5033149;28;20107;-59
2021/08/12 04:26:40;;;;;;;12.43;7.50;;;;;;;16.93;71.63;101833.31;5032940;28;20212;-59
2021/08/12 04:29:08;;;;;;;13.80;9.05;;;;;;;16.99;71.79;101837.66;5032483;28;20384;-59
2021/08/12 04:31:35;;;;;;;14.73;9.40;;;;;;;17.03;71.46;101830.47;5032055;28;20549;-58
2021/08/12 04:34:03;;;;;;;13.75;9.45;;;;;;;17.03;71.06;101841.47;5043098;28;20128;-56
2021/08/12 04:36:30;;;;;;;13.20;9.70;;;;;;;17.03;71.26;101835.97;5036818;28;20514;-55
2021/08/12 04:38:58;;;;;;;16.67;9.73;;;;;;;17.01;71.55;101840.13;5041565;28;20060;-58
2021/08/12 04:41:26;;;;;;;14.02;9.13;;;;;;;17.00;71.29;101839.31;5048456;28;20127;-58
2021/08/12 04:43:54;;;;;;;13.90;8.98;;;;;;;16.99;71.33;101845.91;5034416;28;20084;-57
2021/08/12 04:46:25;;;;;;;16.08;10.32;;;;;;;16.98;71.55;101847.03;5045413;28;20049;-55
2021/08/12 04:48:53;;;;;;;15.32;9.48;;;;;;;17.00;71.13;101843.97;5033559;28;20057;-58
2021/08/12 04:51:21;;;;;;;13.90;9.07;;;;;;;16.98;71.33;101840.66;5044879;28;20056;-57
2021/08/12 04:53:48;;;;;;;13.60;9.50;;;;;;;16.97;71.36;101848.13;5040118;28;20037;-56
2021/08/12 04:56:17;;;;;;;14.27;9.88;;;;;;;17.00;71.19;101843.97;5039481;28;20053;-54
2021/08/12 04:58:44;;;;;;;13.82;10.23;;;;;;;17.02;71.32;101839.00;5033855;28;20056;-58
2021/08/12 05:01:13;;;;;;;15.13;9.52;;;;;;;17.03;71.10;101846.97;5042171;28;20047;-59
2021/08/12 05:03:41;;;;;;;16.67;10.60;;;;;;;17.04;71.10;101845.88;5035672;28;20060;-55
2021/08/12 05:06:11;;;;;;;18.02;10.63;;;;;;;17.09;71.09;101852.44;5034875;28;20514;-58
2021/08/12 05:08:40;;;;;;;16.30;9.88;;;;;;;17.11;70.96;101851.06;5033449;28;20048;-56
2021/08/12 05:11:08;;;;;;;13.65;8.15;;;;;;;17.16;70.86;101847.44;5042626;28;20037;-58
2021/08/12 05:13:37;;;;;;;18.50;9.85;;;;;;;17.18;70.46;101845.22;5045966;28;20041;-54
2021/08/12 05:16:07;;;;;;;16.92;10.80;;;;;;;17.17;70.35;101851.81;5038833;28;20040;-58
2021/08/12 05:18:39;;;;;;;18.50;10.52;;;;;;;17.15;70.66;101856.78;5038209;28;20041;-58
2021/08/12 05:21:07;;;;;;;13.43;8.13;;;;;;;17.19;70.79;101852.38;5037997;28;20037;-58
2021/08/12 05:23:36;;;;;;;14.65;10.25;;;;;;;17.23;70.21;101847.94;5049679;28;20091;-58
2021/08/12 05:26:04;;;;;;;14.27;8.98;;;;;;;17.27;70.12;101849.00;5049855;28;20136;-58
2021/08/12 05:28:33;;;;;;;21.00;10.38;;;;;;;17.31;70.19;101852.81;5042524;28;20037;-58
2021/08/12 05:31:04;;;;;;;16.55;9.88;;;;;;;17.34;69.88;101849.50;5045552;28;20098;-55
2021/08/12 05:33:39;;;;;;;14.05;10.18;;;;;;;17.39;69.82;101852.22;5031820;28;20045;-57
2021/08/12 05:36:06;;;;;;;17.70;9.23;;;;;;;17.42;69.80;101851.63;5030492;28;20037;-56
2021/08/12 05:38:35;;;;;;;16.60;10.70;;;;;;;17.43;69.48;101844.19;5030505;28;20046;-56
2021/08/12 05:41:03;;;;;;;13.57;9.15;;;;;;;17.44;69.54;101852.16;5030278;28;20041;-55
2021/08/12 05:43:30;;;;;;;14.40;9.18;;;;;;;17.46;69.49;101858.22;5030111;28;20079;-54
2021/08/12 05:46:01;;;;;;;18.02;10.70;;;;;;;17.46;69.28;101851.84;5030467;28;20063;-58
2021/08/12 05:48:30;;;;;;;15.15;9.23;;;;;;;17.50;69.47;101858.44;5030568;28;20042;-58
2021/08/12 05:50:59;;;;;;;13.23;9.18;;;;;;;17.49;69.33;101856.00;5041721;28;20488;-58
2021/08/12 05:53:30;;;;;;;13.27;9.35;;;;;;;17.45;69.50;101845.53;5032747;28;20152;-58
2021/08/12 05:55:57;;;;;;;13.38;9.55;;;;;;;17.48;69.49;101860.66;5030398;28;20046;-56
2021/08/12 05:58:25;;;;;;;17.00;10.68;;;;;;;17.50;69.50;101868.66;5029833;28;20405;-57
2021/08/12 06:00:53;;;;;;;15.00;9.98;;;;;;;17.49;69.57;101861.50;5031457;28;20057;-58
2021/08/12 06:03:22;;;;;;;14.88;9.25;;;;;;;17.50;69.53;101860.38;5030282;28;20076;-57
2021/08/12 06:05:56;;;;;;;15.30;9.65;;;;;;;17.50;69.58;101854.88;5030560;28;20069;-58
2021/08/12 06:08:24;;;;;;;16.75;11.20;;;;;;;17.50;69.50;101847.41;5046572;28;20103;-58
2021/08/12 06:10:53;;;;;;;17.02;10.55;;;;;;;17.49;69.64;101850.47;5040243;28;20111;-59
2021/08/12 06:13:21;;;;;;;16.48;9.57;;;;;;;17.48;69.64;101851.56;5053667;28;20048;-58
2021/08/12 06:15:49;;;;;;;12.63;8.20;;;;;;;17.51;69.66;101862.00;5050943;28;20075;-58
2021/08/12 06:18:18;;;;;;;13.55;8.93;;;;;;;17.54;69.90;101853.19;5034110;28;20041;-58
2021/08/12 06:20:49;;;;;;;12.40;8.57;;;;;;;17.57;69.64;101863.63;5038554;28;20041;-59
2021/08/12 06:23:17;;;;;;;14.60;8.27;;;;;;;17.62;69.65;101866.31;5053815;28;20044;-60
2021/08/12 06:25:45;;;;;;;11.63;8.32;;;;;;;17.64;69.75;101864.09;5035803;28;20041;-57
2021/08/12 06:28:13;;;;;;;13.13;7.28;;;;;;;17.65;69.56;101872.09;5033786;28;20150;-58
2021/08/12 06:30:42;;;;;;;14.18;9.35;;;;;;;17.68;69.62;101878.97;5037498;28;20130;-56
2021/08/12 06:33:11;;;;;;;15.70;8.40;;;;;;;17.75;69.76;101876.69;5039088;28;20057;-60
2021/08/12 06:35:38;;;;;;;18.85;10.57;;;;;;;17.75;69.54;101878.59;5053513;28;20041;-59
2021/08/12 06:38:07;;;;;;;16.35;8.73;;;;;;;17.74;70.03;101879.72;5036418;28;20094;-53
2021/08/12 06:40:35;;;;;;;12.90;7.97;;;;;;;17.76;69.76;101883.81;5033093;28;20060;-57
2021/08/12 06:43:03;;;;;;;14.50;8.77;;;;;;;17.81;69.78;101881.06;5047425;28;20098;-60
2021/08/12 06:45:48;;;;;;;14.13;9.32;;;;;;;17.85;69.67;101881.31;5033647;28;20041;-60
2021/08/12 06:48:18;;;;;;;17.38;9.07;;;;;;;17.85;70.00;101882.13;5033413;28;20029;-59
2021/08/12 06:50:45;;;;;;;15.63;9.38;;;;;;;17.87;69.85;101879.91;5033326;28;20042;-58
2021/08/12 06:53:13;;;;;;;19.02;9.85;;;;;;;17.94;69.55;101878.72;5047272;28;20195;-61
2021/08/12 06:55:41;;;;;;;14.98;9.02;;;;;;;17.91;69.47;101874.59;5033136;28;20037;-59
2021/08/12 06:58:09;;;;;;;13.32;8.50;;;;;;;17.94;69.37;101878.72;5033126;28;20046;-59
2021/08/12 07:00:37;;;;;;;11.98;8.30;;;;;;;17.93;69.29;101877.09;5033228;28;20070;-59
2021/08/12 07:03:07;;;;;;;13.05;8.77;;;;;;;17.93;69.42;101882.59;5033450;28;20045;-57
2021/08/12 07:05:35;;;;;;;13.65;8.82;;;;;;;17.97;69.26;101878.16;5032757;28;20125;-55
2021/08/12 07:08:05;;;;;;;11.43;8.13;;;;;;;17.98;69.48;101875.09;5034267;28;20554;-60
2021/08/12 07:10:33;;;;;;;18.58;9.82;;;;;;;18.05;69.02;101870.03;5036748;28;20045;-59
2021/08/12 07:13:01;;;;;;;13.52;8.50;;;;;;;18.14;68.65;101873.00;5052821;28;20045;-59
2021/08/12 07:15:30;;;;;;;14.30;9.15;;;;;;;18.19;68.51;101864.66;5052569;28;20073;-59
2021/08/12 07:17:58;;;;;;;15.65;9.43;;;;;;;18.19;68.51;101864.66;5032862;28;20041;-59
2021/08/12 07:20:25;;;;;;;11.52;7.95;;;;;;;18.25;68.40;101862.66;5032605;28;20057;-56
2021/08/12 07:22:54;;;;;;;13.43;8.18;;;;;;;18.28;68.12;101862.88;5032783;28;20045;-58
2021/08/12 07:25:24;;;;;;;14.80;8.63;;;;;;;18.33;68.10;101861.16;5032179;28;20042;-58
2021/08/12 07:27:52;;;;;;;14.55;8.63;;;;;;;18.35;68.08;101865.31;5032729;28;20492;-61
2021/08/12 07:30:20;;;;;;;12.80;8.27;;;;;;;18.40;68.06;101864.38;5032507;28;20501;-56
2021/08/12 07:32:48;;;;;;;17.48;10.18;;;;;;;18.36;67.87;101868.88;5032249;28;20034;-52
2021/08/12 07:35:20;;;;;;;13.82;8.40;;;;;;;18.38;68.16;101869.41;5032613;28;20057;-56
2021/08/12 07:37:49;;;;;;;16.25;11.18;;;;;;;18.38;68.00;101863.88;5033085;28;20495;-59
2021/08/12 07:40:17;;;;;;;16.10;10.65;;;;;;;18.37;68.10;101865.78;5032390;28;20073;-60
2021/08/12 07:42:46;;;;;;;13.60;8.15;;;;;;;18.39;68.23;101873.78;5045746;28;20484;-60
2021/08/12 07:45:14;;;;;;;17.38;10.38;;;;;;;18.42;68.43;101873.19;5032430;28;20060;-60
2021/08/12 07:47:42;;;;;;;12.52;8.20;;;;;;;18.46;68.50;101879.78;5032454;28;20046;-59
2021/08/12 07:50:11;;;;;;;14.23;8.73;;;;;;;18.49;68.48;101879.16;5032357;28;20046;-60
2021/08/12 07:52:41;;;;;;;14.10;9.45;;;;;;;18.55;68.28;101868.91;5033154;28;20100;-60
2021/08/12 07:55:09;;;;;;;13.55;8.43;;;;;;;18.61;68.05;101871.28;5033382;28;20041;-58
2021/08/12 07:57:37;;;;;;;15.82;8.38;;;;;;;18.63;67.71;101869.06;5033128;28;20060;-61
2021/08/12 08:00:05;;;;;;;11.93;7.97;;;;;;;18.67;67.81;101870.09;5033117;28;20042;-58
2021/08/12 08:02:46;;;;;;;18.15;12.15;;;;;;;18.69;67.87;101872.59;5033409;28;20084;-58
2021/08/12 08:05:18;;;;;;;13.52;8.73;;;;;;;18.72;67.39;101870.03;5033004;28;20144;-56
2021/08/12 08:07:48;;;;;;;14.75;8.73;;;;;;;18.79;67.57;101871.66;5034151;28;20492;-57
2021/08/12 08:10:17;;;;;;;16.50;9.98;;;;;;;18.83;66.78;101873.50;5043570;28;20407;-56
2021/08/12 08:12:45;;;;;;;14.88;8.40;;;;;;;18.83;66.76;101872.66;5047030;28;20514;-55
2021/08/12 08:15:15;;;;;;;15.35;10.55;;;;;;;18.84;66.86;101866.84;5041521;28;20049;-57
2021/08/12 08:18:00;;;;;;;15.35;9.85;;;;;;;18.87;66.80;101873.72;5039491;28;20033;-55
2021/08/12 08:20:29;;;;;;;15.82;8.88;;;;;;;18.90;66.91;101884.97;5052349;28;20491;-51
2021/08/12 08:23:02;;;;;;;11.30;8.35;;;;;;;18.95;66.81;101881.31;5043086;28;20037;-49
2021/08/12 08:25:31;;;;;;;12.00;8.02;;;;;;;18.97;66.75;101878.28;5048730;28;20052;-58
2021/08/12 08:28:00;;;;;;;13.38;8.23;;;;;;;19.01;67.05;101880.16;5043341;28;20042;-58
2021/08/12 08:30:29;;;;;;;16.35;10.25;;;;;;;19.05;66.93;101874.81;5032366;28;20053;-56
2021/08/12 08:32:57;;;;;;;17.10;10.25;;;;;;;19.07;66.91;101865.16;5032496;28;20048;-59
2021/08/12 08:35:25;;;;;;;16.83;10.40;;;;;;;19.09;66.33;101876.69;5032231;28;20528;-60
2021/08/12 08:37:53;;;;;;;13.48;8.73;;;;;;;19.15;66.27;101869.97;5032055;28;20053;-59
2021/08/12 08:40:22;;;;;;;12.85;7.70;;;;;;;19.24;66.57;101861.84;5031469;28;20400;-60
2021/08/12 08:42:50;;;;;;;13.77;7.72;;;;;;;19.28;65.78;101873.91;5031268;28;20443;-60
2021/08/12 08:45:23;;;;;;;13.98;9.65;;;;;;;19.30;65.34;101870.84;5032577;28;20045;-56
2021/08/12 08:47:53;;;;;;;16.88;8.93;;;;;;;19.31;65.14;101866.97;5032491;28;20041;-60
2021/08/12 08:50:31;;;;;;;13.07;7.25;;;;;;;19.34;65.04;101877.44;5031775;28;20048;-58
2021/08/12 08:53:00;;;;;;;15.40;7.45;;;;;;;19.47;64.08;101878.59;5034367;28;20073;-59
2021/08/12 08:55:28;;;;;;;13.75;8.00;;;;;;;19.49;64.03;101877.16;5035039;28;20034;-60
2021/08/12 08:57:57;;;;;;;16.83;6.78;;;;;;;19.54;64.69;101876.25;5035331;28;20037;-57
2021/08/12 09:00:26;;;;;;;14.02;6.85;;;;;;;19.57;63.00;101870.94;5032306;28;20044;-55
2021/08/12 09:02:54;;;;;;;10.20;6.38;;;;;;;19.58;61.17;101871.78;5037895;28;20152;-57
2021/08/12 09:05:22;;;;;;;12.55;6.47;;;;;;;19.58;61.88;101869.81;5038693;28;20045;-58
2021/08/12 09:07:50;;;;;;;11.93;7.40;;;;;;;19.64;62.83;101875.25;5037999;28;20052;-56
2021/08/12 09:10:19;;;;;;;14.05;6.85;;;;;;;19.67;63.50;101869.09;5040587;28;20036;-60
2021/08/12 09:12:48;;;;;;;16.65;7.25;;;;;;;19.75;63.22;101871.22;5037070;28;20045;-58
2021/08/12 09:15:20;;;;;;;10.90;5.90;;;;;;;19.77;62.12;101868.94;5036910;28;20041;-57
2021/08/12 09:17:50;;;;;;;11.05;5.60;;;;;;;19.81;62.44;101867.22;5037031;28;20045;-59
2021/08/12 09:20:24;;;;;;;11.20;5.68;;;;;;;19.85;62.84;101864.69;5041169;28;20107;-59
2021/08/12 09:22:56;;;;;;;13.05;8.77;;;;;;;19.88;62.92;101869.59;5036451;28;20574;-58
2021/08/12 09:25:36;;;;;;;13.38;6.97;;;;;;;19.92;63.02;101863.16;5041720;28;20718;-57
2021/08/12 09:28:16;;;;;;;12.63;7.18;;;;;;;20.00;62.65;101867.94;5036747;28;20045;-61
2021/08/12 09:31:01;;;;;;;9.77;5.00;;;;;;;20.08;63.60;101871.13;5035216;28;20392;-61
2021/08/12 09:33:40;;;;;;;13.05;6.45;;;;;;;20.09;61.75;101873.59;5037572;28;20049;-59
2021/08/12 09:36:36;;;;;;;10.63;6.30;;;;;;;20.13;61.38;101880.19;5036448;28;20046;-58
2021/08/12 09:39:14;;;;;;;10.80;5.82;;;;;;;20.17;61.72;101877.59;5031716;28;20053;-60
2021/08/12 09:41:48;;;;;;;10.93;5.20;;;;;;;20.22;62.13;101874.72;5031214;28;20041;-60
2021/08/12 09:44:35;;;;;;;10.95;5.30;;;;;;;20.27;60.71;101873.81;5035461;28;20060;-55
2021/08/12 09:47:33;;;;;;;12.52;5.57;;;;;;;20.34;61.67;101869.50;5040691;28;20037;-59
2021/08/12 09:50:00;;;;;;;10.30;5.53;;;;;;;20.40;60.25;101871.03;5037715;28;20046;-57
2021/08/12 09:52:31;;;;;;;9.93;4.78;;;;;;;20.42;59.18;101863.25;5035152;28;20408;-58
2021/08/12 09:55:08;;;;;;;13.88;6.72;;;;;;;20.46;59.22;101863.44;5035632;28;20472;-58
2021/08/12 09:57:42;;;;;;;9.13;5.07;;;;;;;20.52;59.61;101866.94;5035230;28;20037;-51
2021/08/12 10:00:15;;;;;;;8.43;4.65;;;;;;;20.56;58.48;101867.97;5034971;28;20045;-59
2021/08/12 10:02:42;;;;;;;12.00;5.30;;;;;;;20.56;58.86;101862.41;5034141;28;20051;-60
2021/08/12 10:05:11;;;;;;;11.30;5.55;;;;;;;;;;5034909;28;20136;-58
2021/08/12 10:07:44;;;;;;;10.50;5.63;;;;;;;20.60;60.57;101853.19;5035475;28;20056;-55
2021/08/12 10:10:19;;;;;;;11.40;5.50;;;;;;;20.64;59.66;101865.28;5034970;28;20056;-59
2021/08/12 10:13:05;;;;;;;10.07;5.07;;;;;;;20.71;60.09;101864.88;5035253;28;20038;-59
2021/08/12 10:15:34;;;;;;;7.70;4.93;;;;;;;20.76;59.99;101863.94;5035185;28;20045;-53
2021/08/12 10:18:03;;;;;;;8.43;4.47;;;;;;;20.77;60.74;101869.16;5034736;28;20045;-57
2021/08/12 10:20:33;;;;;;;8.88;4.70;;;;;;;20.81;60.29;101864.63;5034927;28;20037;-56
2021/08/12 10:23:03;;;;;;;8.43;4.82;;;;;;;20.87;59.52;101856.19;5035519;28;20045;-58
2021/08/12 10:25:34;;;;;;;8.93;4.97;;;;;;;20.88;59.37;101855.06;5035635;28;20595;-61
2021/08/12 10:28:05;;;;;;;10.30;4.82;;;;;;;20.92;59.49;101845.00;5035231;28;20045;-59
2021/08/12 10:30:34;;;;;;;10.95;5.38;;;;;;;21.03;59.05;101854.72;5034339;28;20499;-59
2021/08/12 10:33:03;;;;;;;10.73;5.47;;;;;;;21.09;59.20;101847.91;5034331;28;20049;-59
2021/08/12 10:35:33;;;;;;;9.52;4.88;;;;;;;21.10;58.72;101849.56;5034674;28;20041;-59
2021/08/12 10:38:03;;;;;;;10.35;5.40;;;;;;;21.10;58.84;101846.78;5033268;28;20500;-59
2021/08/12 10:40:34;;;;;;;8.98;4.82;;;;;;;21.11;59.57;101847.59;5033234;28;20120;-59
2021/08/12 10:43:03;;;;;;;9.05;5.50;;;;;;;21.13;58.41;101848.91;5034181;28;20540;-59
2021/08/12 10:45:31;;;;;;;11.70;5.38;;;;;;;21.15;58.52;101849.41;5034595;28;20041;-60
2021/08/12 10:48:01;;;;;;;12.57;4.88;;;;;;;21.18;58.64;101846.00;5034288;28;20034;-58
2021/08/12 10:50:35;;;;;;;13.07;5.88;;;;;;;21.24;58.26;101847.53;5034052;28;20042;-58
2021/08/12 10:53:14;;;;;;;10.57;5.40;;;;;;;21.27;58.52;101849.66;5034047;28;20049;-58
2021/08/12 10:55:41;;;;;;;12.27;5.50;;;;;;;21.28;58.19;101851.28;5034428;28;20056;-55
2021/08/12 10:58:29;;;;;;;9.23;5.43;;;;;;;21.31;58.38;101849.88;5034255;28;20056;-58
2021/08/12 11:00:58;;;;;;;10.63;5.55;;;;;;;21.37;57.90;101842.22;5033183;28;20042;-60
2021/08/12 11:03:45;;;;;;;8.50;4.85;;;;;;;21.39;58.42;101845.50;5034130;28;20056;-58
2021/08/12 11:06:14;;;;;;;9.45;4.85;;;;;;;21.46;58.28;101851.47;5032789;28;20519;-58
2021/08/12 11:11:27;;;;;;;11.95;5.07;;;;;;;21.62;56.69;101838.84;5033588;28;20056;-58
2021/08/12 11:14:12;;;;;;;10.30;5.05;;;;;;;21.66;57.01;101834.25;5033499;28;20061;-52
2021/08/12 11:16:45;;;;;;;9.80;4.75;;;;;;;21.63;57.44;101834.91;5033768;28;20057;-57
2021/08/12 11:19:22;;;;;;;9.13;5.00;;;;;;;21.66;57.37;101834.25;5033981;28;20048;-58
2021/08/12 11:21:50;;;;;;;8.27;4.47;;;;;;;21.68;57.84;101843.09;5033505;28;20045;-56
2021/08/12 11:24:23;;;;;;;8.50;4.40;;;;;;;21.72;57.81;101837.75;5034167;28;20054;-57
2021/08/12 11:26:51;;;;;;;9.73;4.13;;;;;;;21.76;57.81;101838.72;5034237;28;20056;-53
2021/08/12 11:29:32;;;;;;;8.85;5.05;;;;;;;21.82;57.42;101831.09;5033140;28;20045;-59
2021/08/12 11:32:15;;;;;;;8.43;4.85;;;;;;;21.84;57.84;101834.34;5032216;28;20407;-56
2021/08/12 11:34:51;;;;;;;8.38;4.75;;;;;;;21.83;57.70;101843.81;5033639;28;20042;-56
2021/08/12 11:37:27;;;;;;;9.75;4.95;;;;;;;21.81;57.46;101840.53;5033895;28;20056;-59